首页
METAR-TAF:

METAR-TAF

机场 :

罗马, 意大利

纬度: 41-57N, 经度: 012-30E, 海拔: 18米

当前天气观测

该预报发布于59分钟前的11:50 UTC
风速5节,风向西转西南,在西之间变化
温度 21°C
湿度 35%
气压 1025 hPa
能见度10公里或以上
1500米以下无云,无积雨云

METAR: LIRU 071150Z 24005KT 180V280 CAVOK 21/05 Q1025

时间: 14:49 (12:49 UTC)

预报

该预报发布于1小时和49分钟前的11:00 UTC
预报有效从07日的 12点(UTC)到 07日的 21点(UTC)
风速10节,风向西转西南
能见度10公里或以上
1500米以下无云,无积雨云
成为
从 07日的 16点(UTC)到 07日的 18点(UTC)
风速5节,风向多变

TAF: LIRU 071100Z 0712/0721 24010KT CAVOK BECMG 0716/0718 VRB05KT

超过4000个机场的气象观测和天气预报(METAR&TAF报告)。

可查询的气象台以黄色和红色小点在地图上表示。

将鼠标移到小点上方,可查看气象台名称。

然后点击查看天气观测和预报。

如需切换地图:点击带黑十字的绿色按钮放大地图;点击带横线的绿色按钮缩小地图;或者点击绿色箭头查看邻近地区的地图。


METAR-TAF: